YRCOZ LRIA-LRIA
Flight info
| Callsign | YRCOZ |
|---|---|
| Flight time | 0h 2m |
| Altitude | 1000 |
| Route | TRAFFIC PATTERN |
| Aircraft | C172/L-V/N |
Departure
| Time | 2026-04-10 15:39 |
|---|---|
| Airport | Iaşi International Airport (LRIA) |
Arrival
| Time | 2026-04-10 15:41 |
|---|---|
| Airport | Iaşi International Airport (LRIA) |
| Time | Latitude | Longitude | Altitude | Speed | Heading |
|---|---|---|---|---|---|
| 2026-04-10 15:12 | 47.17608 | 27.61920 | 362 ft | 0 kts | 244° |
| 2026-04-10 15:27 | 47.17608 | 27.61917 | 362 ft | 1 kts | 284° |
| 2026-04-10 15:28 | 47.17629 | 27.61919 | 365 ft | 9 kts | 54° |
| 2026-04-10 15:28 | 47.17639 | 27.61960 | 365 ft | 9 kts | 95° |
| 2026-04-10 15:28 | 47.17563 | 27.62058 | 359 ft | 18 kts | 158° |
| 2026-04-10 15:28 | 47.17485 | 27.62115 | 361 ft | 7 kts | 148° |
| 2026-04-10 15:29 | 47.17484 | 27.62198 | 356 ft | 9 kts | 63° |
| 2026-04-10 15:29 | 47.17508 | 27.62266 | 358 ft | 8 kts | 65° |
| 2026-04-10 15:29 | 47.17517 | 27.62293 | 355 ft | 0 kts | 63° |
| 2026-04-10 15:30 | 47.17520 | 27.62301 | 355 ft | 4 kts | 62° |
| 2026-04-10 15:30 | 47.17547 | 27.62360 | 356 ft | 9 kts | 66° |
| 2026-04-10 15:30 | 47.17565 | 27.62477 | 355 ft | 16 kts | 113° |
| 2026-04-10 15:31 | 47.17450 | 27.62602 | 351 ft | 23 kts | 148° |
| 2026-04-10 15:31 | 47.17289 | 27.62748 | 343 ft | 29 kts | 149° |
| 2026-04-10 15:31 | 47.17175 | 27.62912 | 334 ft | 13 kts | 144° |
| 2026-04-10 15:31 | 47.17190 | 27.62835 | 338 ft | 17 kts | 326° |
| 2026-04-10 15:32 | 47.17418 | 27.62612 | 355 ft | 60 kts | 324° |
| 2026-04-10 15:32 | 47.17844 | 27.62206 | 378 ft | 78 kts | 324° |
| 2026-04-10 15:32 | 47.18292 | 27.61679 | 472 ft | 90 kts | 315° |
| 2026-04-10 15:32 | 47.18659 | 27.60878 | 481 ft | 102 kts | 294° |
| 2026-04-10 15:33 | 47.19053 | 27.60186 | 724 ft | 94 kts | 325° |
| 2026-04-10 15:33 | 47.19683 | 27.59838 | 797 ft | 101 kts | 351° |
| 2026-04-10 15:33 | 47.20407 | 27.59975 | 862 ft | 109 kts | 13° |
| 2026-04-10 15:33 | 47.21140 | 27.59935 | 928 ft | 107 kts | 355° |
| 2026-04-10 15:34 | 47.21776 | 27.60510 | 961 ft | 119 kts | 52° |
| 2026-04-10 15:34 | 47.22153 | 27.61566 | 963 ft | 115 kts | 57° |
| 2026-04-10 15:34 | 47.22524 | 27.62562 | 953 ft | 108 kts | 57° |
| 2026-04-10 15:34 | 47.22838 | 27.63498 | 955 ft | 101 kts | 71° |
| 2026-04-10 15:35 | 47.22618 | 27.64418 | 963 ft | 98 kts | 147° |
| 2026-04-10 15:35 | 47.22044 | 27.65023 | 962 ft | 104 kts | 146° |
| 2026-04-10 15:35 | 47.21469 | 27.65656 | 957 ft | 100 kts | 147° |
| 2026-04-10 15:35 | 47.20940 | 27.66251 | 961 ft | 96 kts | 146° |
| 2026-04-10 15:36 | 47.20393 | 27.66853 | 962 ft | 100 kts | 147° |
| 2026-04-10 15:36 | 47.19829 | 27.67469 | 963 ft | 102 kts | 147° |
| 2026-04-10 15:36 | 47.19264 | 27.68088 | 965 ft | 101 kts | 146° |
| 2026-04-10 15:36 | 47.18709 | 27.68696 | 958 ft | 98 kts | 147° |
| 2026-04-10 15:37 | 47.18153 | 27.69283 | 989 ft | 101 kts | 147° |
| 2026-04-10 15:37 | 47.17564 | 27.69888 | 994 ft | 104 kts | 147° |
| 2026-04-10 15:37 | 47.16968 | 27.70480 | 993 ft | 102 kts | 159° |
| 2026-04-10 15:37 | 47.16364 | 27.70311 | 995 ft | 87 kts | 237° |
| 2026-04-10 15:38 | 47.15970 | 27.69627 | 998 ft | 89 kts | 236° |
| 2026-04-10 15:38 | 47.15561 | 27.68945 | 1002 ft | 89 kts | 237° |
| 2026-04-10 15:38 | 47.15138 | 27.68240 | 1003 ft | 94 kts | 237° |
| 2026-04-10 15:38 | 47.14701 | 27.67500 | 1006 ft | 97 kts | 237° |
| 2026-04-10 15:39 | 47.14295 | 27.66736 | 1001 ft | 92 kts | 256° |
| 2026-04-10 15:39 | 47.14476 | 27.65984 | 1018 ft | 79 kts | 320° |
| 2026-04-10 15:39 | 47.14821 | 27.65341 | 990 ft | 78 kts | 309° |
| 2026-04-10 15:39 | 47.15163 | 27.64762 | 850 ft | 76 kts | 315° |
| 2026-04-10 15:40 | 47.15536 | 27.64247 | 682 ft | 76 kts | 325° |
| 2026-04-10 15:40 | 47.15987 | 27.63851 | 558 ft | 76 kts | 338° |
| 2026-04-10 15:40 | 47.16446 | 27.63472 | 427 ft | 72 kts | 332° |
| 2026-04-10 15:40 | 47.16860 | 27.63111 | 390 ft | 66 kts | 332° |
| 2026-04-10 15:41 | 47.17255 | 27.62744 | 351 ft | 66 kts | 328° |
| 2026-04-10 15:41 | 47.17571 | 27.62471 | 355 ft | 45 kts | 335° |
| 2026-04-10 15:41 | 47.17862 | 27.62240 | 375 ft | 58 kts | 329° |
| 2026-04-10 15:41 | 47.18218 | 27.61864 | 478 ft | 66 kts | 326° |
| 2026-04-10 15:42 | 47.18604 | 27.61459 | 612 ft | 70 kts | 326° |
| 2026-04-10 15:42 | 47.19054 | 27.60988 | 695 ft | 88 kts | 326° |
| 2026-04-10 15:42 | 47.19584 | 27.60452 | 828 ft | 96 kts | 326° |
| 2026-04-10 15:42 | 47.20190 | 27.59995 | 972 ft | 103 kts | 354° |
| 2026-04-10 15:43 | 47.20780 | 27.60531 | 997 ft | 108 kts | 56° |
| 2026-04-10 15:43 | 47.21113 | 27.61495 | 990 ft | 102 kts | 56° |
| 2026-04-10 15:43 | 47.21444 | 27.62417 | 987 ft | 102 kts | 56° |
| 2026-04-10 15:43 | 47.21766 | 27.63342 | 978 ft | 101 kts | 60° |
| 2026-04-10 15:44 | 47.21653 | 27.64320 | 985 ft | 107 kts | 135° |
| 2026-04-10 15:44 | 47.21042 | 27.64933 | 990 ft | 106 kts | 146° |
| 2026-04-10 15:44 | 47.20430 | 27.65543 | 986 ft | 106 kts | 147° |
| 2026-04-10 15:44 | 47.19822 | 27.66147 | 982 ft | 105 kts | 147° |
| 2026-04-10 15:45 | 47.19227 | 27.66735 | 983 ft | 102 kts | 147° |
| 2026-04-10 15:45 | 47.18643 | 27.67313 | 984 ft | 101 kts | 147° |
| 2026-04-10 15:45 | 47.18062 | 27.67889 | 984 ft | 100 kts | 147° |
| 2026-04-10 15:45 | 47.17483 | 27.68464 | 983 ft | 100 kts | 147° |
| 2026-04-10 15:46 | 47.16918 | 27.69024 | 984 ft | 99 kts | 147° |
| 2026-04-10 15:46 | 47.16324 | 27.69547 | 982 ft | 100 kts | 170° |
| 2026-04-10 15:46 | 47.15757 | 27.69196 | 993 ft | 89 kts | 240° |
| 2026-04-10 15:46 | 47.15351 | 27.68499 | 1005 ft | 91 kts | 238° |
| 2026-04-10 15:47 | 47.14921 | 27.67768 | 1000 ft | 97 kts | 235° |
| 2026-04-10 15:47 | 47.14516 | 27.66982 | 999 ft | 93 kts | 259° |
| 2026-04-10 15:47 | 47.14679 | 27.66181 | 1060 ft | 78 kts | 303° |
| 2026-04-10 15:47 | 47.14882 | 27.65415 | 914 ft | 87 kts | 294° |
| 2026-04-10 15:48 | 47.15168 | 27.64722 | 815 ft | 75 kts | 318° |
| 2026-04-10 15:48 | 47.15574 | 27.64251 | 642 ft | 75 kts | 326° |
| 2026-04-10 15:48 | 47.16009 | 27.63880 | 569 ft | 68 kts | 330° |
| 2026-04-10 15:48 | 47.16420 | 27.63514 | 458 ft | 68 kts | 327° |
| 2026-04-10 15:49 | 47.16790 | 27.63161 | 397 ft | 61 kts | 327° |
| 2026-04-10 15:49 | 47.17124 | 27.62852 | 362 ft | 54 kts | 336° |
| 2026-04-10 15:49 | 47.17435 | 27.62620 | 350 ft | 48 kts | 332° |
| 2026-04-10 15:49 | 47.17740 | 27.62343 | 393 ft | 63 kts | 326° |
| 2026-04-10 15:50 | 47.18126 | 27.61934 | 514 ft | 77 kts | 326° |
| 2026-04-10 15:50 | 47.18608 | 27.61441 | 633 ft | 91 kts | 327° |
| 2026-04-10 15:50 | 47.19148 | 27.60892 | 767 ft | 97 kts | 326° |
| 2026-04-10 15:50 | 47.19718 | 27.60318 | 910 ft | 101 kts | 326° |
| 2026-04-10 15:51 | 47.20353 | 27.59845 | 998 ft | 108 kts | 354° |
| 2026-04-10 15:51 | 47.20976 | 27.60390 | 1002 ft | 113 kts | 55° |
| 2026-04-10 15:51 | 47.21333 | 27.61396 | 996 ft | 109 kts | 57° |
| 2026-04-10 15:51 | 47.21687 | 27.62370 | 989 ft | 107 kts | 56° |
| 2026-04-10 15:52 | 47.22026 | 27.63320 | 984 ft | 100 kts | 58° |
| 2026-04-10 15:52 | 47.22296 | 27.64262 | 979 ft | 104 kts | 82° |
| 2026-04-10 15:52 | 47.21936 | 27.65181 | 999 ft | 112 kts | 147° |
| 2026-04-10 15:52 | 47.21300 | 27.65818 | 1006 ft | 112 kts | 147° |
| 2026-04-10 15:53 | 47.20663 | 27.66478 | 1000 ft | 113 kts | 147° |
| 2026-04-10 15:53 | 47.20016 | 27.67142 | 1000 ft | 113 kts | 147° |
| 2026-04-10 15:53 | 47.19369 | 27.67804 | 994 ft | 113 kts | 147° |
| 2026-04-10 15:53 | 47.18726 | 27.68468 | 995 ft | 113 kts | 147° |
| 2026-04-10 15:54 | 47.18089 | 27.69126 | 999 ft | 112 kts | 147° |
| 2026-04-10 15:54 | 47.17443 | 27.69789 | 997 ft | 114 kts | 147° |
| 2026-04-10 15:54 | 47.16741 | 27.70202 | 993 ft | 107 kts | 194° |
| 2026-04-10 15:54 | 47.16209 | 27.69612 | 1000 ft | 94 kts | 237° |
| 2026-04-10 15:55 | 47.15783 | 27.68877 | 991 ft | 95 kts | 236° |
| 2026-04-10 15:55 | 47.15352 | 27.68143 | 994 ft | 95 kts | 237° |
| 2026-04-10 15:55 | 47.14912 | 27.67388 | 1000 ft | 99 kts | 237° |
| 2026-04-10 15:55 | 47.14471 | 27.66612 | 996 ft | 98 kts | 242° |
| 2026-04-10 15:56 | 47.14480 | 27.65764 | 1009 ft | 83 kts | 309° |
| 2026-04-10 15:56 | 47.14762 | 27.65069 | 936 ft | 83 kts | 306° |
| 2026-04-10 15:56 | 47.15193 | 27.64548 | 743 ft | 82 kts | 329° |
| 2026-04-10 15:56 | 47.15683 | 27.64122 | 571 ft | 81 kts | 329° |
| 2026-04-10 15:57 | 47.16151 | 27.63709 | 506 ft | 74 kts | 329° |
| 2026-04-10 15:57 | 47.16580 | 27.63335 | 432 ft | 69 kts | 330° |
| 2026-04-10 15:57 | 47.16997 | 27.62971 | 378 ft | 65 kts | 333° |
| 2026-04-10 15:57 | 47.17339 | 27.62688 | 346 ft | 39 kts | 331° |
| 2026-04-10 15:58 | 47.17534 | 27.62521 | 354 ft | 29 kts | 329° |
| 2026-04-10 15:58 | 47.17695 | 27.62378 | 359 ft | 27 kts | 331° |
| 2026-04-10 15:58 | 47.17838 | 27.62243 | 365 ft | 24 kts | 303° |
| 2026-04-10 15:58 | 47.17809 | 27.62078 | 367 ft | 20 kts | 243° |
| 2026-04-10 15:59 | 47.17760 | 27.61940 | 368 ft | 11 kts | 241° |
| 2026-04-10 15:59 | 47.17731 | 27.61916 | 367 ft | 14 kts | 176° |
| 2026-04-10 15:59 | 47.17680 | 27.61943 | 365 ft | 0 kts | 154° |
| 2026-04-10 16:00 | 47.17673 | 27.61937 | 364 ft | 4 kts | 274° |
| 2026-04-10 16:01 | 47.17725 | 27.61903 | 367 ft | 11 kts | 343° |
| 2026-04-10 16:01 | 47.17743 | 27.61864 | 367 ft | 9 kts | 268° |
| 2026-04-10 16:01 | 47.17746 | 27.61831 | 368 ft | 0 kts | 279° |